createdAt,value
2023-05-05T00:00:37.094Z,17.50
2023-05-05T00:03:03.773Z,17.60
2023-05-05T00:05:30.472Z,17.60
2023-05-05T00:07:57.057Z,17.60
2023-05-05T00:10:23.821Z,17.60
2023-05-05T00:12:50.621Z,17.50
2023-05-05T00:15:17.302Z,17.50
2023-05-05T00:17:43.980Z,17.60
2023-05-05T00:20:11.116Z,17.60
2023-05-05T00:22:37.773Z,17.60
2023-05-05T00:25:04.670Z,17.50
2023-05-05T00:27:31.276Z,17.50
2023-05-05T00:29:57.961Z,17.50
2023-05-05T00:32:24.661Z,17.50
2023-05-05T00:34:51.261Z,17.50
2023-05-05T00:37:17.904Z,17.60
2023-05-05T00:39:44.754Z,17.60
2023-05-05T00:42:11.389Z,17.50
2023-05-05T00:44:41.576Z,17.40
2023-05-05T00:47:11.420Z,17.30
2023-05-05T00:49:38.314Z,17.20
2023-05-05T00:52:05.161Z,17.10
2023-05-05T00:54:31.736Z,17.00
2023-05-05T00:56:58.338Z,16.90
2023-05-05T00:59:24.979Z,16.90
2023-05-05T01:01:51.613Z,16.80
2023-05-05T01:04:18.288Z,16.70
2023-05-05T01:06:55.852Z,16.60
2023-05-05T01:09:45.161Z,16.50
2023-05-05T01:12:33.296Z,16.50
2023-05-05T01:15:33.512Z,16.40
2023-05-05T01:18:11.577Z,16.40
2023-05-05T01:20:55.034Z,16.30
2023-05-05T01:23:44.379Z,16.20
2023-05-05T01:26:55.302Z,16.20
2023-05-05T01:29:41.374Z,16.20
2023-05-05T01:32:14.931Z,16.10
2023-05-05T01:34:48.050Z,16.10
2023-05-05T01:37:26.918Z,16.10
2023-05-05T01:39:56.335Z,16.10
2023-05-05T01:42:22.971Z,16.10
2023-05-05T01:44:49.616Z,16.00
2023-05-05T01:47:16.702Z,16.00
2023-05-05T01:49:43.968Z,16.00
2023-05-05T01:52:10.603Z,15.90
2023-05-05T01:54:37.211Z,15.90
2023-05-05T01:57:03.965Z,15.90
2023-05-05T01:59:31.113Z,15.90
2023-05-05T02:01:57.730Z,15.80
2023-05-05T02:04:24.396Z,15.70
2023-05-05T02:06:51.025Z,15.70
2023-05-05T02:09:17.665Z,15.70
2023-05-05T02:11:44.361Z,15.70
2023-05-05T02:14:11.004Z,15.70
2023-05-05T02:16:38.029Z,15.70
2023-05-05T02:19:04.845Z,15.70
2023-05-05T02:21:31.918Z,15.60
2023-05-05T02:23:58.721Z,15.50
2023-05-05T02:26:25.431Z,15.60
2023-05-05T02:29:03.112Z,15.50
2023-05-05T02:31:30.074Z,15.50
2023-05-05T02:33:57.439Z,15.50
2023-05-05T02:36:27.278Z,15.50
2023-05-05T02:38:59.079Z,15.40
2023-05-05T02:41:25.743Z,15.40
2023-05-05T02:43:52.471Z,15.40
2023-05-05T02:46:19.361Z,15.40
2023-05-05T02:48:46.040Z,15.30
2023-05-05T02:51:12.675Z,15.30
2023-05-05T02:53:39.306Z,15.40
2023-05-05T02:56:10.619Z,15.30
2023-05-05T02:59:05.818Z,15.30
2023-05-05T03:01:51.046Z,15.20
2023-05-05T03:04:34.729Z,15.20
2023-05-05T03:07:11.901Z,15.20
2023-05-05T03:09:41.755Z,15.10
2023-05-05T03:12:12.130Z,15.10
2023-05-05T03:14:42.523Z,15.10
2023-05-05T03:17:12.221Z,15.00
2023-05-05T03:19:41.402Z,15.00
2023-05-05T03:22:08.008Z,15.00
2023-05-05T03:24:34.642Z,15.00
2023-05-05T03:27:01.309Z,15.00
2023-05-05T03:29:27.968Z,15.00
2023-05-05T03:31:54.647Z,15.10
2023-05-05T03:34:21.347Z,15.10
2023-05-05T03:36:47.910Z,15.10
2023-05-05T03:39:14.549Z,15.10
2023-05-05T03:41:41.163Z,15.10
2023-05-05T03:44:07.804Z,15.00
2023-05-05T03:46:34.459Z,15.00
2023-05-05T03:49:01.064Z,15.00
2023-05-05T03:51:27.714Z,15.00
2023-05-05T03:53:54.377Z,15.00
2023-05-05T03:56:20.938Z,15.00
2023-05-05T03:58:47.663Z,15.00
2023-05-05T04:01:14.258Z,14.90
2023-05-05T04:03:40.978Z,14.90
2023-05-05T04:06:07.726Z,14.90
2023-05-05T04:08:34.387Z,14.90
2023-05-05T04:11:00.954Z,14.90
2023-05-05T04:13:27.626Z,14.90
2023-05-05T04:15:54.295Z,14.90
2023-05-05T04:18:20.915Z,14.90
2023-05-05T04:20:47.496Z,14.90
2023-05-05T04:23:14.108Z,14.80
2023-05-05T04:25:40.692Z,14.80
2023-05-05T04:28:07.336Z,14.80
2023-05-05T04:30:33.924Z,14.80
2023-05-05T04:33:00.598Z,14.80
2023-05-05T04:35:27.224Z,14.80
2023-05-05T04:37:53.878Z,14.70
2023-05-05T04:40:20.662Z,14.70
2023-05-05T04:42:47.283Z,14.70
2023-05-05T04:45:13.867Z,14.70
2023-05-05T04:47:40.667Z,14.70
2023-05-05T04:50:08.150Z,14.70
2023-05-05T04:52:35.049Z,14.70
2023-05-05T04:55:01.681Z,14.70
2023-05-05T04:57:29.390Z,14.70
2023-05-05T04:59:56.047Z,14.70
2023-05-05T05:02:23.100Z,14.70
2023-05-05T05:04:49.873Z,14.70
2023-05-05T05:07:16.560Z,14.70
2023-05-05T05:09:43.348Z,14.70
2023-05-05T05:12:10.013Z,14.80
2023-05-05T05:14:37.760Z,14.80
2023-05-05T05:17:04.957Z,14.80
2023-05-05T05:19:31.729Z,14.80
2023-05-05T05:21:58.406Z,14.80
2023-05-05T05:24:25.054Z,14.80
2023-05-05T05:26:51.851Z,14.80
2023-05-05T05:29:18.537Z,14.80
2023-05-05T05:31:45.216Z,14.80
2023-05-05T05:34:12.906Z,14.80
2023-05-05T05:36:39.822Z,14.80
2023-05-05T05:39:06.437Z,14.80
2023-05-05T05:41:33.134Z,14.80
2023-05-05T05:43:59.818Z,14.80
2023-05-05T05:46:26.532Z,14.80
2023-05-05T05:48:53.243Z,14.80
2023-05-05T05:51:19.867Z,14.90
2023-05-05T05:53:46.532Z,14.90
2023-05-05T05:56:13.151Z,15.00
2023-05-05T05:58:39.845Z,15.00
2023-05-05T06:01:06.424Z,15.00
2023-05-05T06:03:33.190Z,15.10
2023-05-05T06:05:59.863Z,15.10
2023-05-05T06:08:26.448Z,15.10
2023-05-05T06:10:53.130Z,15.20
2023-05-05T06:13:19.745Z,15.20
2023-05-05T06:15:46.458Z,15.20
2023-05-05T06:18:13.578Z,15.20
2023-05-05T06:20:40.654Z,15.30
2023-05-05T06:23:08.982Z,15.30
2023-05-05T06:25:36.139Z,15.30
2023-05-05T06:28:03.269Z,15.40
2023-05-05T06:30:30.028Z,15.40
2023-05-05T06:32:56.649Z,15.40
2023-05-05T06:35:23.354Z,15.40
2023-05-05T06:37:50.198Z,15.50
2023-05-05T06:40:16.910Z,15.60
2023-05-05T06:42:43.591Z,15.60
2023-05-05T06:45:10.754Z,15.70
2023-05-05T06:47:37.418Z,15.70
2023-05-05T06:50:04.487Z,15.80
2023-05-05T06:52:31.117Z,15.90
2023-05-05T06:54:57.824Z,16.00
2023-05-05T06:57:24.610Z,16.10
2023-05-05T06:59:51.299Z,16.20
2023-05-05T07:02:17.987Z,16.30
2023-05-05T07:04:44.633Z,16.40
2023-05-05T07:07:11.411Z,16.50
2023-05-05T07:09:38.021Z,16.60
2023-05-05T07:12:04.875Z,16.80
2023-05-05T07:14:31.543Z,17.00
2023-05-05T07:16:58.479Z,17.20
2023-05-05T07:19:25.319Z,17.40
2023-05-05T07:21:52.034Z,17.50
2023-05-05T07:24:20.127Z,17.60
2023-05-05T07:26:46.902Z,17.80
2023-05-05T07:29:13.588Z,17.90
2023-05-05T07:31:40.266Z,18.10
2023-05-05T07:34:07.026Z,18.20
2023-05-05T07:36:33.644Z,18.30
2023-05-05T07:39:00.325Z,18.40
2023-05-05T07:41:26.920Z,18.60
2023-05-05T07:43:53.603Z,18.80
2023-05-05T07:46:20.314Z,19.10
2023-05-05T07:48:46.989Z,19.40
2023-05-05T07:51:13.621Z,19.60
2023-05-05T07:53:41.211Z,19.80
2023-05-05T07:56:07.816Z,19.90
2023-05-05T07:58:34.449Z,20.10
2023-05-05T08:01:01.082Z,20.10
2023-05-05T08:03:28.155Z,20.20
2023-05-05T08:05:56.258Z,20.10
2023-05-05T08:08:24.345Z,20.00
2023-05-05T08:10:51.870Z,20.00
2023-05-05T08:13:21.274Z,19.80
2023-05-05T08:15:48.472Z,19.70
2023-05-05T08:18:18.600Z,19.70
2023-05-05T08:20:46.254Z,19.90
2023-05-05T08:23:13.298Z,20.00
2023-05-05T08:25:41.273Z,20.20
2023-05-05T08:28:09.267Z,20.30
2023-05-05T08:30:36.519Z,20.30
2023-05-05T08:33:03.593Z,20.20
2023-05-05T08:35:30.884Z,20.00
2023-05-05T08:38:02.666Z,19.80
2023-05-05T08:40:31.970Z,19.70
2023-05-05T08:42:59.674Z,19.50
2023-05-05T08:45:28.763Z,19.30
2023-05-05T08:47:56.944Z,19.00
2023-05-05T08:50:26.112Z,18.70
2023-05-05T08:53:09.692Z,18.40
2023-05-05T08:55:52.016Z,18.10
2023-05-05T08:58:19.011Z,17.80
2023-05-05T09:00:46.256Z,17.50
2023-05-05T09:03:13.198Z,17.30
2023-05-05T09:05:40.148Z,17.10
2023-05-05T09:08:06.936Z,16.90
2023-05-05T09:10:33.745Z,16.70
2023-05-05T09:13:00.575Z,16.40
2023-05-05T09:15:27.359Z,16.30
2023-05-05T09:17:56.487Z,16.10
2023-05-05T09:20:23.147Z,16.10
2023-05-05T09:22:49.798Z,16.10
2023-05-05T09:25:17.671Z,16.10
2023-05-05T09:27:48.492Z,16.20
2023-05-05T09:30:16.654Z,16.30
2023-05-05T09:32:50.865Z,16.40
2023-05-05T09:35:18.447Z,16.50
2023-05-05T09:37:45.273Z,16.50
2023-05-05T09:40:13.827Z,16.60
2023-05-05T09:42:40.747Z,16.50
2023-05-05T09:45:19.320Z,16.40
2023-05-05T09:47:46.536Z,16.40
2023-05-05T09:50:13.603Z,16.40
2023-05-05T09:52:40.497Z,16.40
2023-05-05T09:55:08.694Z,16.30
2023-05-05T09:57:35.305Z,16.30
2023-05-05T10:00:02.390Z,16.30
2023-05-05T10:02:33.276Z,16.30
2023-05-05T10:05:10.198Z,16.40
2023-05-05T10:07:39.962Z,16.40
2023-05-05T10:10:09.503Z,16.40
2023-05-05T10:12:36.837Z,16.50
2023-05-05T10:15:07.964Z,16.60
2023-05-05T10:17:50.956Z,16.70
2023-05-05T10:20:25.260Z,16.80
2023-05-05T10:22:52.683Z,16.80
2023-05-05T10:25:30.056Z,16.80
2023-05-05T10:27:59.555Z,16.80
2023-05-05T10:30:28.445Z,16.80
2023-05-05T10:33:12.274Z,16.80
2023-05-05T10:35:44.938Z,16.80
2023-05-05T10:38:12.490Z,16.80
2023-05-05T10:40:45.390Z,16.80
2023-05-05T10:43:13.801Z,16.90
2023-05-05T10:45:41.170Z,16.90
2023-05-05T10:48:10.366Z,16.90
2023-05-05T10:50:41.260Z,17.00
2023-05-05T10:53:21.344Z,17.10
2023-05-05T10:56:10.553Z,17.20
2023-05-05T10:58:46.903Z,17.30
2023-05-05T11:01:14.661Z,17.40
2023-05-05T11:03:41.416Z,17.40
2023-05-05T11:06:08.525Z,17.50
2023-05-05T11:08:39.033Z,17.70
2023-05-05T11:11:05.834Z,17.90
2023-05-05T11:13:32.610Z,18.10
2023-05-05T11:15:59.915Z,18.20
2023-05-05T11:18:59.044Z,18.30
2023-05-05T11:21:25.740Z,18.30
2023-05-05T11:23:52.363Z,18.10
2023-05-05T11:26:48.577Z,18.00
2023-05-05T11:29:15.387Z,17.90
2023-05-05T11:31:42.244Z,17.70
2023-05-05T11:34:47.509Z,17.60
2023-05-05T11:37:14.133Z,17.40
2023-05-05T11:40:02.707Z,17.30
2023-05-05T11:42:29.462Z,17.00
2023-05-05T11:44:56.291Z,16.50
2023-05-05T11:47:22.923Z,16.00
2023-05-05T11:49:49.711Z,15.70
2023-05-05T11:52:16.443Z,15.50
2023-05-05T11:54:44.928Z,15.30
2023-05-05T11:57:11.646Z,15.20
2023-05-05T11:59:50.089Z,15.20
2023-05-05T12:02:17.696Z,15.10
2023-05-05T12:04:44.301Z,15.10
2023-05-05T12:07:20.731Z,15.10
2023-05-05T12:09:47.974Z,15.10
2023-05-05T12:12:14.806Z,15.20
2023-05-05T12:14:45.597Z,15.30
2023-05-05T12:17:12.249Z,15.30
2023-05-05T12:19:47.787Z,15.30
2023-05-05T12:22:28.144Z,15.30
2023-05-05T12:24:55.543Z,15.30
2023-05-05T12:27:22.194Z,15.30
2023-05-05T12:29:48.983Z,15.40
2023-05-05T12:32:22.806Z,15.40
2023-05-05T12:34:50.828Z,15.50
2023-05-05T12:37:17.485Z,15.50
2023-05-05T12:39:44.168Z,15.50
2023-05-05T12:42:10.951Z,15.60
2023-05-05T12:44:38.139Z,15.80
2023-05-05T12:47:05.010Z,16.00
2023-05-05T12:49:31.838Z,16.20
2023-05-05T12:51:58.738Z,16.20
2023-05-05T12:54:25.625Z,16.30
2023-05-05T12:56:52.284Z,16.40
2023-05-05T12:59:22.297Z,16.50
2023-05-05T13:01:53.100Z,16.60
2023-05-05T13:04:21.079Z,16.80
2023-05-05T13:06:48.748Z,16.90
2023-05-05T13:09:25.202Z,17.20
2023-05-05T13:11:52.418Z,17.70
2023-05-05T13:14:19.087Z,18.00
2023-05-05T13:16:45.833Z,18.20
2023-05-05T13:19:12.492Z,18.40
2023-05-05T13:21:39.203Z,18.40
2023-05-05T13:24:23.050Z,18.40
2023-05-05T13:26:52.953Z,18.40
2023-05-05T13:29:19.707Z,18.60
2023-05-05T13:31:46.456Z,18.80
2023-05-05T13:34:13.223Z,19.20
2023-05-05T13:36:39.926Z,19.40
2023-05-05T13:39:06.593Z,19.50
2023-05-05T13:41:48.674Z,19.40
2023-05-05T13:44:15.340Z,19.20
2023-05-05T13:46:42.235Z,18.90
2023-05-05T13:49:08.905Z,18.80
2023-05-05T13:51:35.640Z,18.70
2023-05-05T13:54:04.921Z,18.60
2023-05-05T13:56:31.539Z,18.50
2023-05-05T13:58:58.156Z,18.40
2023-05-05T14:01:24.888Z,18.20
2023-05-05T14:03:51.633Z,18.10
2023-05-05T14:06:18.308Z,18.10
2023-05-05T14:08:45.074Z,18.10
2023-05-05T14:11:11.729Z,18.20
2023-05-05T14:13:38.437Z,18.40
2023-05-05T14:16:05.377Z,18.60
2023-05-05T14:18:31.983Z,18.60
2023-05-05T14:20:58.624Z,18.70
2023-05-05T14:23:25.274Z,18.60
2023-05-05T14:25:51.988Z,18.60
2023-05-05T14:28:18.677Z,18.60
2023-05-05T14:30:45.321Z,18.80
2023-05-05T14:33:11.993Z,19.10
2023-05-05T14:35:38.685Z,19.50
2023-05-05T14:38:05.489Z,19.90
2023-05-05T14:40:32.250Z,20.20
2023-05-05T14:42:58.907Z,20.30
2023-05-05T14:45:25.588Z,20.40
2023-05-05T14:47:52.958Z,20.60
2023-05-05T14:50:19.665Z,20.70
2023-05-05T14:52:46.393Z,20.70
2023-05-05T14:55:13.163Z,20.90
2023-05-05T14:57:39.808Z,21.00
2023-05-05T15:00:07.219Z,21.00
2023-05-05T15:02:33.946Z,21.00
2023-05-05T15:05:00.792Z,20.90
2023-05-05T15:07:27.463Z,20.90
2023-05-05T15:09:55.751Z,20.70
2023-05-05T15:12:22.860Z,20.60
2023-05-05T15:14:49.563Z,20.60
2023-05-05T15:17:16.902Z,20.50
2023-05-05T15:19:43.614Z,20.60
2023-05-05T15:22:10.336Z,20.70
2023-05-05T15:24:36.973Z,20.80
2023-05-05T15:27:03.682Z,21.00
2023-05-05T15:29:30.304Z,21.10
2023-05-05T15:31:57.065Z,21.10
2023-05-05T15:34:23.701Z,21.20
2023-05-05T15:36:50.329Z,21.20
2023-05-05T15:39:17.025Z,21.20
2023-05-05T15:41:43.689Z,21.20
2023-05-05T15:44:12.284Z,21.10
2023-05-05T15:46:41.635Z,20.80
2023-05-05T15:49:08.332Z,20.60
2023-05-05T15:51:34.989Z,20.30
2023-05-05T15:54:01.647Z,20.10
2023-05-05T15:56:28.442Z,19.90
2023-05-05T15:58:55.171Z,19.80
2023-05-05T16:01:21.952Z,19.70
2023-05-05T16:03:48.604Z,19.60
2023-05-05T16:06:15.293Z,19.40
2023-05-05T16:08:41.967Z,19.30
2023-05-05T16:11:08.811Z,19.20
2023-05-05T16:13:35.407Z,19.20
2023-05-05T16:16:02.045Z,19.10
2023-05-05T16:18:28.822Z,19.10
2023-05-05T16:20:55.395Z,19.00
2023-05-05T16:23:22.052Z,19.00
2023-05-05T16:25:48.768Z,18.90
2023-05-05T16:28:18.781Z,18.90
2023-05-05T16:30:45.417Z,18.90
2023-05-05T16:33:12.066Z,18.80
2023-05-05T16:35:38.768Z,18.80
2023-05-05T16:38:05.452Z,18.80
2023-05-05T16:40:32.177Z,18.80
2023-05-05T16:42:58.787Z,18.70
2023-05-05T16:45:25.430Z,18.70
2023-05-05T16:47:54.192Z,18.70
2023-05-05T16:50:21.570Z,18.70
2023-05-05T16:52:48.457Z,18.80
2023-05-05T16:55:15.241Z,18.70
2023-05-05T16:57:41.846Z,18.70
2023-05-05T17:00:11.962Z,18.80
2023-05-05T17:02:38.631Z,18.80
2023-05-05T17:05:05.920Z,18.80
2023-05-05T17:07:32.685Z,18.80
2023-05-05T17:09:59.417Z,18.80
2023-05-05T17:12:26.079Z,18.80
2023-05-05T17:14:52.799Z,18.80
2023-05-05T17:17:19.508Z,18.80
2023-05-05T17:19:46.183Z,18.90
2023-05-05T17:22:12.922Z,18.90
2023-05-05T17:24:40.094Z,18.90
2023-05-05T17:27:06.828Z,19.00
2023-05-05T17:29:33.505Z,19.10
2023-05-05T17:32:03.156Z,19.10
2023-05-05T17:34:29.800Z,19.10
2023-05-05T17:36:56.432Z,19.10
2023-05-05T17:39:23.046Z,19.20
2023-05-05T17:41:49.718Z,19.10
2023-05-05T17:44:16.967Z,19.10
2023-05-05T17:46:43.650Z,19.10
2023-05-05T17:49:10.388Z,19.10
2023-05-05T17:51:37.068Z,19.10
2023-05-05T17:54:03.909Z,19.00
2023-05-05T17:56:30.599Z,18.90
2023-05-05T17:58:57.400Z,18.90
2023-05-05T18:01:24.684Z,18.80
2023-05-05T18:03:51.524Z,18.70
2023-05-05T18:06:18.388Z,18.60
2023-05-05T18:08:45.059Z,18.50
2023-05-05T18:11:11.674Z,18.50
2023-05-05T18:13:38.466Z,18.40
2023-05-05T18:16:05.528Z,18.40
2023-05-05T18:18:32.375Z,18.30
2023-05-05T18:20:59.069Z,18.20
2023-05-05T18:23:25.767Z,18.20
2023-05-05T18:25:52.454Z,18.10
2023-05-05T18:28:19.157Z,18.00
2023-05-05T18:30:45.860Z,17.90
2023-05-05T18:33:12.559Z,17.80
2023-05-05T18:35:39.193Z,17.80
2023-05-05T18:38:05.902Z,17.70
2023-05-05T18:40:32.660Z,17.70
2023-05-05T18:42:59.312Z,17.60
2023-05-05T18:45:25.981Z,17.60
2023-05-05T18:47:52.670Z,17.50
2023-05-05T18:50:19.342Z,17.50
2023-05-05T18:52:46.060Z,17.40
2023-05-05T18:55:12.760Z,17.40
2023-05-05T18:57:39.404Z,17.30
2023-05-05T19:00:06.857Z,17.30
2023-05-05T19:02:33.527Z,17.20
2023-05-05T19:05:00.247Z,17.20
2023-05-05T19:07:34.917Z,17.20
2023-05-05T19:10:06.534Z,17.10
2023-05-05T19:12:33.183Z,17.00
2023-05-05T19:14:59.827Z,17.00
2023-05-05T19:17:26.508Z,16.90
2023-05-05T19:19:53.186Z,16.90
2023-05-05T19:22:19.784Z,16.90
2023-05-05T19:24:46.494Z,16.80
2023-05-05T19:27:14.762Z,16.80
2023-05-05T19:29:43.241Z,16.70
2023-05-05T19:32:09.939Z,16.70
2023-05-05T19:34:36.820Z,16.60
2023-05-05T19:37:03.471Z,16.60
2023-05-05T19:39:30.090Z,16.50
2023-05-05T19:41:56.697Z,16.50
2023-05-05T19:44:23.416Z,16.50
2023-05-05T19:46:50.054Z,16.40
2023-05-05T19:49:16.805Z,16.40
2023-05-05T19:51:43.479Z,16.30
2023-05-05T19:54:10.095Z,16.30
2023-05-05T19:56:36.838Z,16.30
2023-05-05T19:59:05.813Z,16.20
2023-05-05T20:01:32.617Z,16.20
2023-05-05T20:03:59.420Z,16.20
2023-05-05T20:06:26.176Z,16.20
2023-05-05T20:08:52.918Z,16.20
2023-05-05T20:11:19.551Z,16.10
2023-05-05T20:13:46.387Z,16.20
2023-05-05T20:16:13.242Z,16.20
2023-05-05T20:18:39.968Z,16.10
2023-05-05T20:21:06.670Z,16.10
2023-05-05T20:23:33.349Z,16.10
2023-05-05T20:26:00.196Z,16.10
2023-05-05T20:28:26.836Z,16.10
2023-05-05T20:30:53.616Z,16.10
2023-05-05T20:33:20.229Z,16.20
2023-05-05T20:35:47.146Z,16.10
2023-05-05T20:38:13.953Z,16.10
2023-05-05T20:40:40.653Z,16.10
2023-05-05T20:43:07.372Z,16.10
2023-05-05T20:45:34.675Z,16.00
2023-05-05T20:48:04.104Z,16.00
2023-05-05T20:50:30.997Z,16.00
2023-05-05T20:52:57.716Z,15.90
2023-05-05T20:55:25.336Z,15.90
2023-05-05T20:57:51.980Z,15.90
2023-05-05T21:00:18.706Z,15.80
2023-05-05T21:02:45.462Z,15.80
2023-05-05T21:05:12.348Z,15.70
2023-05-05T21:07:39.098Z,15.70
2023-05-05T21:10:06.378Z,15.70
2023-05-05T21:12:33.690Z,15.60
2023-05-05T21:15:00.417Z,15.60
2023-05-05T21:17:27.162Z,15.60
2023-05-05T21:19:53.973Z,15.50
2023-05-05T21:22:20.820Z,15.50
2023-05-05T21:24:47.501Z,15.50
2023-05-05T21:27:14.284Z,15.50
2023-05-05T21:29:41.129Z,15.50
2023-05-05T21:32:08.602Z,15.50
2023-05-05T21:34:35.325Z,15.40
2023-05-05T21:37:02.045Z,15.40
2023-05-05T21:39:28.908Z,15.40
2023-05-05T21:41:55.544Z,15.30
2023-05-05T21:44:22.278Z,15.30
2023-05-05T21:46:49.162Z,15.30
2023-05-05T21:49:16.860Z,15.30
2023-05-05T21:51:43.746Z,15.30
2023-05-05T21:54:10.486Z,15.20
2023-05-05T21:56:37.325Z,15.20
2023-05-05T21:59:04.761Z,15.10
2023-05-05T22:01:31.751Z,15.10
2023-05-05T22:03:58.693Z,15.10
2023-05-05T22:06:25.400Z,15.00
2023-05-05T22:08:52.390Z,15.00
2023-05-05T22:11:19.279Z,15.00
2023-05-05T22:13:46.385Z,14.90
2023-05-05T22:16:14.907Z,14.90
2023-05-05T22:18:41.553Z,14.80
2023-05-05T22:21:08.192Z,14.80
2023-05-05T22:23:34.916Z,14.80
2023-05-05T22:26:01.574Z,14.70
2023-05-05T22:28:28.196Z,14.70
2023-05-05T22:30:54.937Z,14.70
2023-05-05T22:33:21.600Z,14.60
2023-05-05T22:35:48.232Z,14.60
2023-05-05T22:38:14.906Z,14.50
2023-05-05T22:40:41.516Z,14.50
2023-05-05T22:43:08.192Z,14.50
2023-05-05T22:45:34.790Z,14.40
2023-05-05T22:48:01.520Z,14.40
2023-05-05T22:50:28.287Z,14.40
2023-05-05T22:52:54.979Z,14.30
2023-05-05T22:55:21.688Z,14.30
2023-05-05T22:57:48.390Z,14.30
2023-05-05T23:00:15.133Z,14.20
2023-05-05T23:02:41.812Z,14.20
2023-05-05T23:05:09.043Z,14.20
2023-05-05T23:07:35.863Z,14.10
2023-05-05T23:10:03.153Z,14.10
2023-05-05T23:12:29.830Z,14.10
2023-05-05T23:14:56.478Z,14.00
2023-05-05T23:17:23.150Z,14.00
2023-05-05T23:19:49.807Z,14.00
2023-05-05T23:22:16.434Z,14.00
2023-05-05T23:24:43.083Z,13.90
2023-05-05T23:27:09.774Z,13.90
2023-05-05T23:29:36.417Z,13.90
2023-05-05T23:32:03.036Z,13.90
2023-05-05T23:34:29.682Z,13.80
2023-05-05T23:36:56.325Z,13.80
2023-05-05T23:39:22.957Z,13.80
2023-05-05T23:41:49.586Z,13.70
2023-05-05T23:44:16.252Z,13.70
2023-05-05T23:46:43.087Z,13.70
2023-05-05T23:49:09.886Z,13.70
2023-05-05T23:51:36.557Z,13.60
2023-05-05T23:54:03.278Z,13.60
2023-05-05T23:56:29.925Z,13.60
2023-05-05T23:58:56.556Z,13.60
